Time;durP1;ratioP1;P1;durP2;ratioP2;P2;SDS_P1;SDS_P2;PMS_P1;PMS_P2;Temp;Humidity;BMP_temperature;BMP_pressure;BME280_temperature;BME280_humidity;BME280_pressure;Samples;Min_cycle;Max_cycle;Signal;HPM_P1;HPM_P2
2021/08/13 00:01:07;;;;;;;11.70;6.95;;;19.00;84.80;;;;;;4995417;28;20081;-84
2021/08/13 00:03:33;;;;;;;9.25;6.63;;;19.00;85.20;;;;;;5002530;28;20030;-84
2021/08/13 00:05:59;;;;;;;10.23;6.65;;;19.10;85.00;;;;;;5001515;28;20030;-84
2021/08/13 00:08:24;;;;;;;11.05;6.80;;;19.00;84.90;;;;;;4985723;28;20060;-84
2021/08/13 00:10:51;;;;;;;9.88;6.78;;;19.10;85.00;;;;;;5003514;28;20045;-84
2021/08/13 00:13:16;;;;;;;10.52;7.00;;;19.00;85.80;;;;;;5004036;28;20026;-84
2021/08/13 00:15:42;;;;;;;9.68;6.40;;;18.90;84.70;;;;;;4993076;28;20030;-85
2021/08/13 00:18:08;;;;;;;9.10;6.78;;;19.00;84.90;;;;;;5007983;28;20133;-84
2021/08/13 00:20:35;;;;;;;9.85;6.95;;;19.00;86.40;;;;;;5008216;28;20033;-84
2021/08/13 00:23:03;;;;;;;11.05;6.88;;;18.80;86.80;;;;;;4980848;28;20030;-84
2021/08/13 00:25:29;;;;;;;12.98;7.47;;;18.90;86.80;;;;;;4978990;28;20100;-84
2021/08/13 00:27:55;;;;;;;13.65;7.03;;;18.90;87.00;;;;;;4997806;28;20030;-84
2021/08/13 00:30:21;;;;;;;9.73;7.05;;;19.00;87.50;;;;;;4983689;28;20057;-84
2021/08/13 00:32:47;;;;;;;10.38;6.90;;;18.90;86.80;;;;;;5001930;28;20022;-84
2021/08/13 00:35:12;;;;;;;8.80;6.55;;;19.00;87.00;;;;;;4982959;28;20501;-84
2021/08/13 00:37:38;;;;;;;12.73;6.45;;;19.00;86.40;;;;;;4999770;28;20030;-85
2021/08/13 00:40:06;;;;;;;8.18;6.68;;;18.90;85.70;;;;;;5005235;28;20490;-84
2021/08/13 00:42:31;;;;;;;10.37;6.67;;;18.90;85.60;;;;;;4987283;28;20050;-84
2021/08/13 00:44:57;;;;;;;13.63;6.57;;;18.90;86.20;;;;;;4991867;28;20280;-85
2021/08/13 00:47:23;;;;;;;11.35;6.90;;;18.80;87.80;;;;;;5006512;28;20438;-84
2021/08/13 00:49:48;;;;;;;11.23;7.28;;;18.80;88.20;;;;;;4989429;28;20033;-84
2021/08/13 00:52:16;;;;;;;9.23;6.70;;;18.80;87.90;;;;;;4987973;28;20312;-84
2021/08/13 00:54:42;;;;;;;11.57;6.72;;;18.90;87.70;;;;;;4990289;28;20071;-84
2021/08/13 00:57:08;;;;;;;9.85;6.78;;;18.80;87.50;;;;;;5009565;28;20037;-84
2021/08/13 00:59:34;;;;;;;11.15;7.10;;;18.80;88.00;;;;;;5008171;28;20026;-84
2021/08/13 01:02:00;;;;;;;13.35;7.63;;;18.90;87.70;;;;;;5005102;28;20038;-84
2021/08/13 01:04:25;;;;;;;10.25;7.35;;;18.90;88.00;;;;;;4986631;28;20022;-85
2021/08/13 01:06:51;;;;;;;13.35;7.65;;;18.90;87.50;;;;;;4988630;28;20503;-85
2021/08/13 01:09:17;;;;;;;10.10;7.20;;;18.90;88.60;;;;;;5005257;28;20026;-85
2021/08/13 01:12:03;;;;;;;11.82;7.47;;;18.90;87.60;;;;;;5005036;28;20030;-85
2021/08/13 01:14:31;;;;;;;10.48;7.05;;;18.90;87.10;;;;;;5003491;28;20041;-84
2021/08/13 01:16:59;;;;;;;11.32;7.10;;;18.80;87.30;;;;;;5008063;28;20053;-83
2021/08/13 01:20:03;;;;;;;10.05;7.20;;;18.80;87.20;;;;;;5008027;28;20106;-83
2021/08/13 01:22:48;;;;;;;11.18;6.75;;;18.90;86.60;;;;;;5005190;28;20502;-83
2021/08/13 01:25:19;;;;;;;11.45;7.28;;;18.80;86.90;;;;;;4988039;28;20030;-85
2021/08/13 01:27:48;;;;;;;11.55;8.00;;;18.80;88.40;;;;;;5009958;28;20045;-85
2021/08/13 01:30:20;;;;;;;12.88;7.28;;;18.70;88.40;;;;;;5004582;28;20390;-84
2021/08/13 01:32:59;;;;;;;11.40;7.18;;;18.60;88.40;;;;;;5002324;28;20018;-84
2021/08/13 01:35:29;;;;;;;15.80;7.65;;;18.60;89.00;;;;;;5007720;28;20454;-84
2021/08/13 01:38:12;;;;;;;12.15;7.47;;;18.60;88.20;;;;;;5007893;28;20022;-84
2021/08/13 01:40:46;;;;;;;14.43;8.60;;;18.50;89.40;;;;;;4987068;28;20046;-84
2021/08/13 01:43:17;;;;;;;15.55;7.82;;;18.60;88.80;;;;;;5006092;28;20474;-85
2021/08/13 01:45:44;;;;;;;10.70;7.13;;;18.60;88.30;;;;;;4983758;28;20073;-85
2021/08/13 01:48:11;;;;;;;10.43;7.05;;;18.70;87.60;;;;;;5000772;28;20033;-85
2021/08/13 01:50:37;;;;;;;10.93;7.38;;;18.60;86.60;;;;;;5001015;28;20053;-84
2021/08/13 01:53:03;;;;;;;12.77;7.82;;;18.60;87.50;;;;;;5001990;28;20105;-84
2021/08/13 01:55:31;;;;;;;10.43;7.70;;;18.60;87.20;;;;;;4999723;28;20034;-84
2021/08/13 01:57:58;;;;;;;12.85;8.02;;;18.60;87.60;;;;;;4999302;28;20030;-84
2021/08/13 02:00:25;;;;;;;11.20;7.68;;;18.50;88.00;;;;;;5004799;28;20445;-84
2021/08/13 02:02:52;;;;;;;13.57;8.05;;;18.40;88.20;;;;;;4985159;28;20483;-84
2021/08/13 02:05:25;;;;;;;10.73;7.20;;;18.40;88.20;;;;;;4996059;28;20038;-85
2021/08/13 02:07:52;;;;;;;14.32;7.88;;;18.30;87.70;;;;;;4996149;28;20061;-85
2021/08/13 02:10:19;;;;;;;10.20;8.00;;;18.30;88.50;;;;;;4985572;28;20996;-85
2021/08/13 02:12:45;;;;;;;13.80;7.53;;;18.30;89.40;;;;;;4985138;28;20030;-85
2021/08/13 02:15:12;;;;;;;11.90;7.63;;;18.20;88.80;;;;;;4999206;28;20026;-85
2021/08/13 02:18:00;;;;;;;10.50;7.05;;;18.20;90.20;;;;;;5004071;28;20030;-85
2021/08/13 02:20:27;;;;;;;11.52;7.45;;;18.20;89.50;;;;;;4988265;28;20881;-85
2021/08/13 02:22:53;;;;;;;12.88;7.85;;;18.10;90.00;;;;;;4998723;28;20104;-84
2021/08/13 02:25:19;;;;;;;11.80;7.68;;;18.20;90.10;;;;;;4990640;28;20038;-85
2021/08/13 02:27:45;;;;;;;11.68;7.50;;;18.20;89.60;;;;;;4988275;28;20894;-85
2021/08/13 02:30:12;;;;;;;10.50;7.32;;;18.10;89.90;;;;;;4985646;28;20475;-84
2021/08/13 02:32:38;;;;;;;12.73;8.25;;;18.10;90.10;;;;;;5002043;28;20029;-84
2021/08/13 02:35:05;;;;;;;10.20;7.40;;;18.20;89.60;;;;;;4989549;28;20026;-84
2021/08/13 02:37:41;;;;;;;10.32;7.10;;;18.20;89.30;;;;;;4984046;28;20422;-85
2021/08/13 02:40:14;;;;;;;11.77;6.95;;;18.30;88.70;;;;;;4999512;28;20044;-85
2021/08/13 02:42:55;;;;;;;9.88;6.82;;;18.30;88.00;;;;;;4990812;28;20510;-86
2021/08/13 02:45:23;;;;;;;10.55;6.72;;;18.20;86.50;;;;;;5008064;28;20038;-85
2021/08/13 02:47:54;;;;;;;10.80;6.80;;;18.20;86.40;;;;;;5009274;28;20036;-85
2021/08/13 02:50:22;;;;;;;10.88;7.88;;;18.10;86.40;;;;;;4992557;28;20061;-85
2021/08/13 02:52:58;;;;;;;10.50;7.28;;;18.10;86.80;;;;;;5005235;28;20029;-85
2021/08/13 02:55:31;;;;;;;12.10;7.45;;;18.10;86.90;;;;;;5005904;28;20516;-85
2021/08/13 02:58:01;;;;;;;10.60;7.28;;;18.10;87.10;;;;;;5006526;28;20106;-85
2021/08/13 03:00:28;;;;;;;9.95;7.47;;;18.10;87.50;;;;;;5005691;28;20034;-85
2021/08/13 03:02:55;;;;;;;9.82;7.43;;;18.10;88.10;;;;;;4994871;28;20160;-85
2021/08/13 03:05:24;;;;;;;10.00;7.43;;;18.10;88.40;;;;;;5000414;28;20119;-85
2021/08/13 03:07:51;;;;;;;9.52;7.22;;;18.20;88.20;;;;;;4988746;28;20034;-85
2021/08/13 03:10:18;;;;;;;11.57;7.45;;;18.20;88.10;;;;;;5009658;28;20058;-84
2021/08/13 03:12:45;;;;;;;11.57;7.63;;;18.10;88.30;;;;;;5010566;28;20021;-84
2021/08/13 03:15:10;;;;;;;11.00;7.05;;;18.10;88.40;;;;;;5009778;28;20022;-84
2021/08/13 03:17:38;;;;;;;9.93;7.30;;;18.10;88.10;;;;;;5009869;28;20030;-84
2021/08/13 03:20:06;;;;;;;10.63;7.50;;;18.10;88.30;;;;;;5005213;28;20638;-84
2021/08/13 03:22:33;;;;;;;10.30;7.28;;;18.10;88.20;;;;;;5005977;28;20033;-85
2021/08/13 03:25:00;;;;;;;11.17;7.80;;;18.10;87.90;;;;;;5004690;28;20044;-85
2021/08/13 03:27:26;;;;;;;14.10;7.43;;;18.00;87.60;;;;;;4989700;28;20471;-84
2021/08/13 03:29:53;;;;;;;10.75;7.05;;;18.00;87.70;;;;;;5004775;28;20037;-84
2021/08/13 03:32:19;;;;;;;9.40;6.72;;;18.00;87.60;;;;;;4990893;28;20122;-85
2021/08/13 03:34:45;;;;;;;10.38;7.60;;;18.00;87.90;;;;;;5012803;28;20026;-85
2021/08/13 03:37:11;;;;;;;12.32;6.95;;;17.90;88.80;;;;;;4989871;28;20033;-84
2021/08/13 03:39:36;;;;;;;11.15;7.35;;;17.80;88.30;;;;;;4989478;28;20034;-85
2021/08/13 03:42:02;;;;;;;11.32;7.07;;;17.90;88.30;;;;;;4999903;28;20050;-85
2021/08/13 03:44:28;;;;;;;10.25;7.10;;;17.90;87.90;;;;;;4986514;28;20026;-85
2021/08/13 03:46:54;;;;;;;10.45;7.18;;;17.90;87.90;;;;;;4979907;28;20290;-85
2021/08/13 03:49:19;;;;;;;10.73;7.05;;;17.90;88.10;;;;;;4996633;28;20030;-84
2021/08/13 03:51:45;;;;;;;9.48;7.22;;;17.80;89.00;;;;;;4998001;28;20081;-84
2021/08/13 03:54:11;;;;;;;11.30;7.38;;;17.70;89.80;;;;;;4980829;28;20026;-85
2021/08/13 03:56:37;;;;;;;11.82;8.00;;;17.70;90.40;;;;;;4979741;28;20032;-84
2021/08/13 03:59:02;;;;;;;13.63;7.65;;;17.70;90.30;;;;;;4997234;28;20042;-85
2021/08/13 04:01:28;;;;;;;12.27;6.70;;;17.70;90.00;;;;;;4998648;28;20060;-84
2021/08/13 04:03:54;;;;;;;11.55;7.22;;;17.70;89.70;;;;;;4998851;28;20562;-84
2021/08/13 04:06:19;;;;;;;8.02;6.43;;;17.80;89.10;;;;;;4996825;28;20033;-84
2021/08/13 04:08:45;;;;;;;10.98;6.88;;;17.80;88.70;;;;;;4998831;28;20029;-85
2021/08/13 04:11:11;;;;;;;11.13;7.45;;;17.80;88.80;;;;;;5007755;28;20040;-85
2021/08/13 04:13:36;;;;;;;10.05;7.15;;;17.70;88.60;;;;;;5006979;28;20026;-84
2021/08/13 04:16:02;;;;;;;11.60;7.85;;;17.70;88.80;;;;;;4997568;28;20034;-84
2021/08/13 04:18:27;;;;;;;9.88;7.13;;;17.80;88.60;;;;;;5000926;28;20079;-85
2021/08/13 04:20:53;;;;;;;11.13;7.65;;;17.70;88.50;;;;;;4996984;28;20037;-84
2021/08/13 04:23:19;;;;;;;10.13;7.18;;;17.70;88.40;;;;;;4998825;28;20511;-85
2021/08/13 04:25:44;;;;;;;12.35;7.60;;;17.70;88.60;;;;;;5000296;28;20125;-84
2021/08/13 04:28:10;;;;;;;9.07;7.20;;;17.70;88.90;;;;;;4998267;28;20030;-84
2021/08/13 04:30:36;;;;;;;11.25;7.22;;;17.70;89.00;;;;;;5000246;28;20430;-84
2021/08/13 04:33:07;;;;;;;10.98;7.60;;;17.70;88.80;;;;;;5002340;28;20030;-84
2021/08/13 04:35:32;;;;;;;10.05;7.40;;;17.70;88.80;;;;;;4986156;28;20514;-84
2021/08/13 04:37:58;;;;;;;9.68;7.20;;;17.60;89.00;;;;;;4995959;28;20034;-84
2021/08/13 04:40:24;;;;;;;13.15;8.43;;;17.70;88.80;;;;;;5002757;28;20080;-84
2021/08/13 04:42:49;;;;;;;8.93;6.60;;;17.60;89.20;;;;;;5002693;28;20071;-84
2021/08/13 04:45:15;;;;;;;14.77;7.43;;;17.60;89.40;;;;;;5005388;28;20364;-84
2021/08/13 04:47:41;;;;;;;12.95;7.63;;;17.70;89.80;;;;;;5000660;28;20021;-85
2021/08/13 04:50:07;;;;;;;11.30;7.35;;;17.60;89.60;;;;;;5001764;28;20793;-84
2021/08/13 04:52:42;;;;;;;13.50;7.05;;;17.60;90.00;;;;;;5002151;28;20032;-85
2021/08/13 04:55:08;;;;;;;11.80;7.15;;;17.60;90.00;;;;;;5003687;28;20398;-85
2021/08/13 04:57:34;;;;;;;11.30;8.13;;;17.70;90.10;;;;;;5006848;28;20549;-85
2021/08/13 04:59:59;;;;;;;9.82;7.05;;;17.70;90.00;;;;;;4998610;28;20029;-85
2021/08/13 05:02:25;;;;;;;11.88;7.90;;;17.70;90.50;;;;;;5001903;28;20044;-84
2021/08/13 05:05:01;;;;;;;9.93;7.97;;;17.70;91.30;;;;;;5001263;28;20053;-85
2021/08/13 05:07:29;;;;;;;9.55;7.68;;;17.70;91.20;;;;;;5005060;28;20034;-85
2021/08/13 05:09:54;;;;;;;11.63;7.68;;;17.80;90.60;;;;;;4999572;28;20080;-84
2021/08/13 05:12:20;;;;;;;13.23;7.82;;;17.90;90.60;;;;;;5002435;28;20502;-84
2021/08/13 05:14:45;;;;;;;9.75;7.43;;;18.00;90.50;;;;;;5000861;28;20030;-84
2021/08/13 05:17:11;;;;;;;10.27;7.05;;;18.10;90.30;;;;;;5003257;28;20049;-84
2021/08/13 05:19:37;;;;;;;15.40;8.18;;;18.20;90.70;;;;;;4988128;28;20048;-85
2021/08/13 05:22:03;;;;;;;12.10;7.70;;;18.20;90.70;;;;;;4988303;28;20558;-85
2021/08/13 05:24:29;;;;;;;12.00;8.38;;;18.30;90.60;;;;;;5002471;28;20037;-84
2021/08/13 05:26:54;;;;;;;11.35;7.72;;;18.40;90.60;;;;;;4989644;28;20498;-85
2021/08/13 05:29:20;;;;;;;9.80;7.60;;;18.50;90.30;;;;;;4991162;28;20029;-84
2021/08/13 05:31:46;;;;;;;10.73;7.68;;;18.60;90.40;;;;;;5000319;28;20038;-85
2021/08/13 05:34:12;;;;;;;10.38;8.20;;;18.70;90.30;;;;;;4989132;28;20034;-85
2021/08/13 05:36:38;;;;;;;13.48;8.25;;;18.80;90.60;;;;;;5002191;28;20030;-84
2021/08/13 05:39:04;;;;;;;10.13;6.97;;;18.80;90.00;;;;;;4995048;28;20491;-84
2021/08/13 05:41:29;;;;;;;13.15;8.10;;;18.90;90.40;;;;;;4979299;28;20081;-85
2021/08/13 05:43:55;;;;;;;12.38;7.90;;;19.00;90.00;;;;;;4991460;28;20109;-84
2021/08/13 05:46:21;;;;;;;14.25;8.00;;;19.10;90.20;;;;;;4973296;28;20034;-85
2021/08/13 05:48:47;;;;;;;11.57;7.70;;;19.30;90.00;;;;;;4978554;28;20506;-84
2021/08/13 05:51:12;;;;;;;12.82;7.18;;;19.40;90.10;;;;;;4998251;28;20125;-85
2021/08/13 05:53:38;;;;;;;10.75;8.23;;;19.50;90.30;;;;;;4995967;28;20030;-84
2021/08/13 05:56:04;;;;;;;13.80;8.10;;;19.60;89.90;;;;;;5000748;28;20049;-84
2021/08/13 05:58:29;;;;;;;9.93;7.53;;;19.70;90.10;;;;;;5008704;28;20072;-86
2021/08/13 06:00:55;;;;;;;11.50;7.63;;;19.80;90.20;;;;;;5006206;28;20034;-85
2021/08/13 06:03:20;;;;;;;10.35;8.20;;;19.90;90.30;;;;;;4987361;28;20046;-85
2021/08/13 06:05:46;;;;;;;11.43;6.93;;;20.00;90.20;;;;;;5003365;28;20084;-85
2021/08/13 06:08:12;;;;;;;10.70;7.38;;;20.20;90.00;;;;;;5000030;28;20042;-85
2021/08/13 06:10:37;;;;;;;12.10;7.40;;;20.30;90.20;;;;;;5001223;28;20033;-86
2021/08/13 06:13:03;;;;;;;8.57;7.13;;;20.40;89.90;;;;;;5002447;28;20068;-85
2021/08/13 06:15:29;;;;;;;10.85;7.53;;;20.40;89.30;;;;;;5005659;28;20041;-85
2021/08/13 06:17:54;;;;;;;10.10;7.55;;;20.50;89.20;;;;;;4988129;28;20076;-85
2021/08/13 06:20:22;;;;;;;11.93;7.78;;;20.60;88.90;;;;;;5004768;28;20394;-85
2021/08/13 06:22:48;;;;;;;9.48;7.18;;;20.70;89.00;;;;;;4990910;28;20056;-85
2021/08/13 06:25:14;;;;;;;11.30;7.30;;;20.80;88.60;;;;;;4983936;28;20037;-84
2021/08/13 06:27:42;;;;;;;10.38;6.88;;;20.90;88.50;;;;;;5004446;28;20485;-85
2021/08/13 06:30:13;;;;;;;10.50;7.72;;;21.00;88.90;;;;;;4999324;28;20493;-85
2021/08/13 06:32:39;;;;;;;9.50;7.28;;;21.10;87.70;;;;;;5002065;28;20091;-85
2021/08/13 06:35:06;;;;;;;10.18;6.85;;;21.20;87.70;;;;;;5002941;28;20450;-85
2021/08/13 06:37:32;;;;;;;9.37;7.07;;;21.30;87.80;;;;;;5001368;28;20018;-84
2021/08/13 06:39:58;;;;;;;12.93;6.68;;;21.50;86.90;;;;;;4989867;28;20053;-86
2021/08/13 06:42:24;;;;;;;8.82;5.95;;;21.60;86.30;;;;;;5005763;28;20467;-85
2021/08/13 06:44:49;;;;;;;7.22;5.65;;;21.70;86.20;;;;;;5002773;28;20118;-87
2021/08/13 06:47:15;;;;;;;8.02;5.93;;;21.80;84.50;;;;;;5007500;28;20061;-86
2021/08/13 06:49:41;;;;;;;8.43;5.45;;;21.80;84.50;;;;;;4993375;28;20123;-86
2021/08/13 06:52:10;;;;;;;9.23;5.63;;;21.90;83.80;;;;;;5007036;28;20033;-85
2021/08/13 06:54:36;;;;;;;8.43;5.50;;;22.00;82.90;;;;;;5006883;28;20816;-83
2021/08/13 06:57:02;;;;;;;10.10;5.43;;;22.10;82.80;;;;;;5011454;28;20025;-83
2021/08/13 06:59:28;;;;;;;7.78;5.53;;;22.20;83.00;;;;;;5010868;28;20080;-84
2021/08/13 07:01:54;;;;;;;6.80;5.13;;;22.30;82.50;;;;;;5009668;28;20034;-84
2021/08/13 07:04:19;;;;;;;7.60;5.47;;;22.30;82.80;;;;;;4990834;28;20030;-85
2021/08/13 07:06:45;;;;;;;8.57;5.80;;;22.40;82.10;;;;;;5011561;28;20474;-84
2021/08/13 07:09:11;;;;;;;9.70;5.95;;;22.50;81.80;;;;;;5005460;28;22128;-84
2021/08/13 07:11:36;;;;;;;8.60;5.43;;;22.60;81.30;;;;;;5008981;28;20037;-84
2021/08/13 07:14:02;;;;;;;9.50;5.32;;;22.70;79.50;;;;;;5006558;28;20470;-84
2021/08/13 07:16:28;;;;;;;10.43;5.50;;;22.80;80.00;;;;;;5006308;28;20034;-84
2021/08/13 07:18:53;;;;;;;5.60;5.00;;;22.80;80.50;;;;;;5009541;28;20033;-85
2021/08/13 07:21:19;;;;;;;6.90;4.63;;;22.90;78.50;;;;;;5005759;28;20022;-84
2021/08/13 07:23:45;;;;;;;7.60;4.75;;;23.00;77.50;;;;;;4993513;28;20040;-86
2021/08/13 07:26:10;;;;;;;6.13;5.07;;;23.00;78.10;;;;;;5010004;28;20505;-84
2021/08/13 07:28:36;;;;;;;9.27;5.00;;;23.10;78.10;;;;;;4992284;28;20088;-84
2021/08/13 07:31:01;;;;;;;7.28;4.47;;;23.20;78.40;;;;;;5009690;28;20524;-84
2021/08/13 07:33:27;;;;;;;5.65;4.55;;;23.20;78.10;;;;;;4989684;28;20030;-84
2021/08/13 07:35:53;;;;;;;7.25;4.45;;;23.30;78.10;;;;;;5006772;28;20061;-84
2021/08/13 07:38:18;;;;;;;7.00;4.97;;;23.40;76.60;;;;;;4991166;28;20494;-84
2021/08/13 07:40:44;;;;;;;7.72;4.95;;;23.50;76.40;;;;;;5003771;28;20042;-85
2021/08/13 07:43:10;;;;;;;6.43;4.72;;;23.50;77.10;;;;;;4995811;28;20076;-85
2021/08/13 07:45:35;;;;;;;7.03;4.68;;;23.60;77.00;;;;;;5002555;28;20022;-84
2021/08/13 07:48:01;;;;;;;7.18;4.70;;;23.80;75.80;;;;;;5001480;28;20115;-83
2021/08/13 07:50:26;;;;;;;5.28;4.45;;;23.80;76.00;;;;;;5002261;28;20061;-84
2021/08/13 07:52:52;;;;;;;6.05;4.57;;;23.90;75.40;;;;;;5005660;28;20026;-83
2021/08/13 07:55:18;;;;;;;6.22;3.83;;;24.00;75.60;;;;;;5005182;28;20018;-83
2021/08/13 07:57:44;;;;;;;7.50;3.70;;;24.10;73.40;;;;;;4986645;28;20026;-85
2021/08/13 08:00:10;;;;;;;5.05;3.42;;;24.20;71.90;;;;;;5009145;28;20036;-84
2021/08/13 08:02:35;;;;;;;5.25;3.33;;;24.30;70.90;;;;;;5000279;28;20402;-85
2021/08/13 08:05:01;;;;;;;5.63;3.08;;;24.40;68.60;;;;;;5008337;28;20018;-85
2021/08/13 08:07:28;;;;;;;4.30;2.97;;;24.40;71.10;;;;;;5000638;28;20548;-85
2021/08/13 08:09:53;;;;;;;6.75;3.00;;;24.60;68.30;;;;;;5006764;28;20026;-84
2021/08/13 08:12:19;;;;;;;5.32;2.95;;;24.60;68.00;;;;;;5003123;28;20101;-84
2021/08/13 08:14:44;;;;;;;4.18;2.60;;;24.60;67.50;;;;;;5002489;28;20026;-85
2021/08/13 08:17:10;;;;;;;5.03;2.95;;;24.70;69.00;;;;;;5000665;28;20030;-84
2021/08/13 08:19:36;;;;;;;4.72;2.58;;;24.80;69.30;;;;;;5000877;28;20030;-85
2021/08/13 08:22:02;;;;;;;3.20;2.70;;;24.90;68.40;;;;;;5001914;28;20034;-84
2021/08/13 08:24:28;;;;;;;7.15;2.70;;;24.90;64.10;;;;;;5000971;28;20121;-84
2021/08/13 08:26:53;;;;;;;10.50;3.17;;;24.90;65.80;;;;;;5002375;28;20041;-85
2021/08/13 08:29:19;;;;;;;4.15;2.90;;;25.10;67.30;;;;;;4986431;28;20029;-85
2021/08/13 08:31:44;;;;;;;4.53;2.60;;;25.20;65.00;;;;;;5005461;28;20052;-85
2021/08/13 08:34:10;;;;;;;4.40;3.55;;;25.20;66.30;;;;;;5004409;28;20101;-86
2021/08/13 08:36:36;;;;;;;4.00;2.53;;;25.30;63.90;;;;;;5001827;28;20164;-85
2021/08/13 08:39:03;;;;;;;3.92;2.55;;;25.30;64.50;;;;;;4984256;28;20060;-85
2021/08/13 08:41:29;;;;;;;3.10;2.47;;;25.40;62.70;;;;;;4988560;28;20053;-84
2021/08/13 08:43:55;;;;;;;5.05;2.50;;;25.40;63.10;;;;;;4992574;28;20113;-85
2021/08/13 08:46:23;;;;;;;4.75;2.60;;;25.40;63.90;;;;;;5006619;28;20185;-85
2021/08/13 08:48:58;;;;;;;4.35;2.85;;;25.50;63.60;;;;;;4986091;28;20029;-85
2021/08/13 08:51:31;;;;;;;4.10;2.42;;;25.60;61.80;;;;;;5004088;28;20034;-85
2021/08/13 08:54:01;;;;;;;3.90;2.55;;;25.70;61.50;;;;;;4992529;28;20112;-86
2021/08/13 08:56:27;;;;;;;4.63;2.53;;;25.70;61.20;;;;;;5006924;28;20034;-85
2021/08/13 08:58:56;;;;;;;4.13;2.65;;;25.70;60.70;;;;;;5010007;28;20056;-85
2021/08/13 09:01:27;;;;;;;6.95;2.78;;;25.70;62.50;;;;;;5004916;28;20123;-86
2021/08/13 09:03:53;;;;;;;3.38;2.75;;;25.70;61.80;;;;;;5009451;28;20030;-85
2021/08/13 09:06:19;;;;;;;3.55;2.58;;;25.70;61.50;;;;;;5007649;28;20399;-85
2021/08/13 09:08:50;;;;;;;6.53;2.95;;;25.80;61.30;;;;;;4991556;28;20057;-86
2021/08/13 09:11:18;;;;;;;5.60;2.08;;;25.90;61.30;;;;;;4991911;28;20391;-86
2021/08/13 09:14:02;;;;;;;6.80;3.03;;;25.90;60.10;;;;;;5008246;28;20463;-86
2021/08/13 09:16:28;;;;;;;5.75;3.33;;;25.90;60.80;;;;;;5010107;28;20033;-85
2021/08/13 09:19:00;;;;;;;4.97;2.78;;;25.90;60.60;;;;;;4993138;28;20026;-86
2021/08/13 09:21:27;;;;;;;3.97;2.70;;;26.10;62.30;;;;;;5008178;28;20128;-86
2021/08/13 09:23:54;;;;;;;4.55;2.50;;;26.10;60.90;;;;;;5006025;28;20084;-86
2021/08/13 09:26:27;;;;;;;6.25;3.00;;;26.20;61.00;;;;;;5007280;28;20418;-85
2021/08/13 09:29:01;;;;;;;3.92;2.80;;;26.20;61.00;;;;;;5010452;28;20037;-86
2021/08/13 09:31:33;;;;;;;4.95;2.70;;;26.30;61.40;;;;;;5006996;28;20069;-86
2021/08/13 09:34:18;;;;;;;5.70;3.00;;;26.40;61.30;;;;;;4991826;28;20088;-85
2021/08/13 09:36:50;;;;;;;7.57;2.67;;;26.60;60.80;;;;;;5003251;28;20026;-85
2021/08/13 09:39:23;;;;;;;4.80;2.65;;;26.60;62.60;;;;;;5010618;28;20034;-85
2021/08/13 09:41:51;;;;;;;3.85;2.58;;;26.60;60.90;;;;;;5002323;28;20050;-84
2021/08/13 09:44:27;;;;;;;5.13;2.70;;;26.60;59.90;;;;;;5004134;28;20475;-86
2021/08/13 09:46:58;;;;;;;3.25;2.60;;;26.70;61.00;;;;;;4987928;28;20089;-86
2021/08/13 09:49:27;;;;;;;4.28;2.35;;;26.70;60.00;;;;;;4990309;28;20026;-85
2021/08/13 09:51:53;;;;;;;5.93;2.65;;;26.70;58.70;;;;;;4995634;28;20108;-85
2021/08/13 09:54:25;;;;;;;3.42;2.63;;;26.60;59.10;;;;;;4983344;28;20046;-86
2021/08/13 09:56:51;;;;;;;7.40;2.60;;;26.80;60.50;;;;;;4983808;28;20088;-86
2021/08/13 09:59:20;;;;;;;7.15;3.22;;;26.80;61.30;;;;;;5000800;28;20341;-86
2021/08/13 10:01:50;;;;;;;6.28;2.72;;;26.90;61.80;;;;;;5004074;28;20049;-86
2021/08/13 10:04:32;;;;;;;5.43;2.70;;;27.00;59.60;;;;;;5003607;28;20068;-85
2021/08/13 10:06:58;;;;;;;7.93;2.90;;;27.10;60.50;;;;;;4999130;28;20034;-85
2021/08/13 10:09:28;;;;;;;4.93;2.63;;;27.10;61.90;;;;;;4990290;28;20383;-86
2021/08/13 10:12:03;;;;;;;8.32;2.63;;;27.10;58.70;;;;;;5001750;28;20080;-86
2021/08/13 10:14:31;;;;;;;3.95;2.78;;;27.20;57.30;;;;;;5002846;28;20502;-85
2021/08/13 10:17:14;;;;;;;6.05;2.65;;;27.20;55.80;;;;;;4982365;28;20025;-86
2021/08/13 10:19:51;;;;;;;3.28;2.45;;;27.30;60.90;;;;;;5002028;28;20022;-85
2021/08/13 10:22:21;;;;;;;4.97;2.45;;;27.30;57.60;;;;;;4982798;28;20063;-84
2021/08/13 10:24:47;;;;;;;6.55;2.72;;;27.30;57.80;;;;;;4982909;28;20065;-86
2021/08/13 10:27:16;;;;;;;4.00;3.03;;;27.30;56.90;;;;;;4985368;28;20022;-85
2021/08/13 10:29:43;;;;;;;5.93;2.90;;;27.30;58.40;;;;;;4986891;28;20026;-84
2021/08/13 10:32:10;;;;;;;5.10;2.95;;;27.30;58.10;;;;;;4981816;28;20045;-85
2021/08/13 10:34:36;;;;;;;8.48;2.88;;;27.40;56.80;;;;;;4997058;28;20498;-85
2021/08/13 10:37:10;;;;;;;5.63;2.60;;;27.40;59.50;;;;;;4986641;28;20038;-84
2021/08/13 10:39:39;;;;;;;4.32;2.70;;;27.40;58.50;;;;;;4997722;28;20087;-84
2021/08/13 10:42:06;;;;;;;5.95;2.63;;;27.60;57.90;;;;;;5001934;28;20093;-85
2021/08/13 10:44:38;;;;;;;4.28;2.78;;;27.60;57.10;;;;;;4992416;28;20054;-85
2021/08/13 10:47:12;;;;;;;6.70;3.17;;;27.70;58.20;;;;;;4994460;28;20513;-86
2021/08/13 10:49:39;;;;;;;4.78;2.92;;;27.70;56.60;;;;;;4986530;28;20018;-85
2021/08/13 10:52:07;;;;;;;4.53;2.75;;;27.80;58.90;;;;;;5013141;28;20091;-85
2021/08/13 10:54:46;;;;;;;5.95;3.50;;;27.80;58.30;;;;;;5002325;28;20053;-86
2021/08/13 10:57:13;;;;;;;3.28;2.83;;;27.90;57.10;;;;;;5006187;28;20034;-86
2021/08/13 10:59:41;;;;;;;7.13;2.95;;;27.90;56.40;;;;;;5005540;28;20076;-85
2021/08/13 11:02:12;;;;;;;5.30;2.83;;;27.90;57.90;;;;;;4990756;28;20049;-85
2021/08/13 11:04:41;;;;;;;4.82;3.10;;;28.00;57.90;;;;;;5005169;28;20025;-87
2021/08/13 11:07:07;;;;;;;3.20;2.90;;;28.10;57.70;;;;;;5008054;28;20101;-86
2021/08/13 11:09:35;;;;;;;3.47;3.15;;;27.90;55.20;;;;;;5009200;28;20090;-86
2021/08/13 11:12:07;;;;;;;4.28;3.20;;;27.90;57.40;;;;;;5006450;28;20117;-86
2021/08/13 11:14:50;;;;;;;7.95;3.40;;;27.90;57.50;;;;;;5005349;28;20050;-85
2021/08/13 11:17:34;;;;;;;4.32;3.53;;;27.90;57.30;;;;;;4984115;28;20080;-85
2021/08/13 11:20:02;;;;;;;5.18;4.07;;;27.90;57.20;;;;;;5008862;28;20041;-86
2021/08/13 11:22:31;;;;;;;8.43;3.50;;;28.00;59.10;;;;;;5009014;28;20032;-86
2021/08/13 11:24:57;;;;;;;5.90;3.30;;;28.10;58.30;;;;;;4990957;28;20038;-85
2021/08/13 11:27:23;;;;;;;7.18;3.88;;;28.00;57.40;;;;;;5010835;28;20436;-86
2021/08/13 11:29:49;;;;;;;7.15;3.50;;;28.00;57.60;;;;;;5005662;28;20026;-85
2021/08/13 11:32:14;;;;;;;8.25;3.58;;;28.10;56.70;;;;;;5001416;28;20089;-85
2021/08/13 11:34:52;;;;;;;6.57;3.10;;;28.10;58.30;;;;;;4993303;28;20025;-84
2021/08/13 11:37:27;;;;;;;7.03;3.45;;;28.10;59.90;;;;;;4993199;28;20073;-84
2021/08/13 11:39:54;;;;;;;5.20;3.70;;;28.30;59.30;;;;;;4991451;28;20038;-84
2021/08/13 11:42:22;;;;;;;7.97;3.40;;;28.30;61.60;;;;;;4988650;28;20125;-85
2021/08/13 11:44:49;;;;;;;5.50;3.38;;;28.30;57.90;;;;;;5000676;28;20049;-84
2021/08/13 11:47:19;;;;;;;4.85;3.45;;;28.30;59.80;;;;;;4984805;28;20054;-84
2021/08/13 11:49:48;;;;;;;4.93;3.40;;;28.20;58.50;;;;;;4986645;28;20042;-84
2021/08/13 11:52:24;;;;;;;9.40;3.88;;;28.30;58.10;;;;;;4981601;28;21993;-84
2021/08/13 11:54:51;;;;;;;6.55;3.50;;;28.20;58.90;;;;;;4982691;28;20034;-84
2021/08/13 11:57:20;;;;;;;7.07;4.32;;;28.30;57.00;;;;;;4983091;28;20030;-84
2021/08/13 11:59:48;;;;;;;5.90;3.45;;;28.30;57.80;;;;;;4994848;28;20031;-84
2021/08/13 12:02:31;;;;;;;12.02;4.07;;;28.30;59.40;;;;;;5011660;28;20086;-84
2021/08/13 12:05:05;;;;;;;6.35;4.68;;;28.40;58.00;;;;;;4996619;28;20027;-85
2021/08/13 12:07:31;;;;;;;5.30;3.72;;;28.40;58.80;;;;;;4997954;28;20030;-85
2021/08/13 12:09:57;;;;;;;5.88;3.53;;;28.50;59.30;;;;;;4985429;28;20096;-85
2021/08/13 12:12:29;;;;;;;5.07;3.58;;;28.60;57.90;;;;;;4987633;28;20037;-85
2021/08/13 12:14:57;;;;;;;6.95;3.80;;;28.60;59.60;;;;;;4987109;28;20121;-84
2021/08/13 12:17:22;;;;;;;;;;;28.50;58.10;;;;;;5005116;28;20092;-85
2021/08/13 12:19:54;;;;;;;9.25;4.07;;;28.50;57.80;;;;;;4982692;28;19997;-85
2021/08/13 12:22:28;;;;;;;6.97;3.97;;;28.40;57.00;;;;;;4986079;28;20026;-85
2021/08/13 12:24:54;;;;;;;6.93;3.65;;;28.40;59.60;;;;;;4987169;28;20022;-85
2021/08/13 12:27:30;;;;;;;6.07;3.80;;;28.40;61.30;;;;;;4999413;28;20386;-85
2021/08/13 12:29:56;;;;;;;8.90;4.00;;;28.30;57.10;;;;;;4985479;28;20036;-85
2021/08/13 12:32:35;;;;;;;6.43;3.97;;;28.30;57.20;;;;;;4984238;28;20035;-85
2021/08/13 12:35:00;;;;;;;5.93;3.90;;;28.30;58.90;;;;;;4985770;28;20133;-85
2021/08/13 12:37:26;;;;;;;7.30;3.67;;;28.30;58.50;;;;;;4985482;28;20109;-86
2021/08/13 12:39:52;;;;;;;8.70;4.18;;;28.40;59.30;;;;;;4986715;28;20022;-84
2021/08/13 12:42:19;;;;;;;8.32;4.05;;;28.40;58.30;;;;;;5006205;28;20052;-85
2021/08/13 12:44:45;;;;;;;5.45;3.55;;;28.30;58.50;;;;;;4991631;28;20025;-85
2021/08/13 12:47:13;;;;;;;6.80;4.10;;;28.40;59.20;;;;;;4990581;28;20466;-84